sensor_id;sensor_type;location;lat;lon;timestamp;P1;durP1;ratioP1;P2;durP2;ratioP2
52740;SDS011;38634;52.138;9.912;2022-08-01T00:01:49;9.15;;;2.47;;
52740;SDS011;38634;52.138;9.912;2022-08-01T00:04:34;9.13;;;2.42;;
52740;SDS011;38634;52.138;9.912;2022-08-01T00:07:18;10.63;;;2.70;;
52740;SDS011;38634;52.138;9.912;2022-08-01T00:10:03;8.95;;;2.20;;
52740;SDS011;38634;52.138;9.912;2022-08-01T00:12:51;11.32;;;2.70;;
52740;SDS011;38634;52.138;9.912;2022-08-01T00:15:35;9.52;;;2.30;;
52740;SDS011;38634;52.138;9.912;2022-08-01T00:18:20;12.02;;;2.92;;
52740;SDS011;38634;52.138;9.912;2022-08-01T00:21:05;11.93;;;3.53;;
52740;SDS011;38634;52.138;9.912;2022-08-01T00:23:49;10.30;;;2.28;;
52740;SDS011;38634;52.138;9.912;2022-08-01T00:26:34;13.18;;;3.03;;
52740;SDS011;38634;52.138;9.912;2022-08-01T00:29:19;10.57;;;2.58;;
52740;SDS011;38634;52.138;9.912;2022-08-01T00:32:03;10.30;;;2.53;;
52740;SDS011;38634;52.138;9.912;2022-08-01T00:34:48;7.88;;;2.17;;
52740;SDS011;38634;52.138;9.912;2022-08-01T00:37:32;10.40;;;3.28;;
52740;SDS011;38634;52.138;9.912;2022-08-01T00:40:17;5.25;;;1.65;;
52740;SDS011;38634;52.138;9.912;2022-08-01T00:43:02;9.25;;;2.45;;
52740;SDS011;38634;52.138;9.912;2022-08-01T00:45:47;8.77;;;2.33;;
52740;SDS011;38634;52.138;9.912;2022-08-01T00:48:32;10.95;;;2.67;;
52740;SDS011;38634;52.138;9.912;2022-08-01T00:51:16;10.30;;;3.60;;
52740;SDS011;38634;52.138;9.912;2022-08-01T00:54:01;11.45;;;2.97;;
52740;SDS011;38634;52.138;9.912;2022-08-01T00:56:46;10.10;;;2.75;;
52740;SDS011;38634;52.138;9.912;2022-08-01T00:59:31;7.82;;;2.67;;
52740;SDS011;38634;52.138;9.912;2022-08-01T01:02:15;10.48;;;2.90;;
52740;SDS011;38634;52.138;9.912;2022-08-01T01:05:02;11.15;;;3.00;;
52740;SDS011;38634;52.138;9.912;2022-08-01T01:07:56;8.48;;;2.10;;
52740;SDS011;38634;52.138;9.912;2022-08-01T01:13:57;9.35;;;2.47;;
52740;SDS011;38634;52.138;9.912;2022-08-01T01:16:48;9.30;;;2.30;;
52740;SDS011;38634;52.138;9.912;2022-08-01T01:19:35;8.52;;;2.53;;
52740;SDS011;38634;52.138;9.912;2022-08-01T01:25:40;9.77;;;2.42;;
52740;SDS011;38634;52.138;9.912;2022-08-01T01:29:40;11.30;;;2.47;;
52740;SDS011;38634;52.138;9.912;2022-08-01T01:35:24;12.40;;;2.60;;
52740;SDS011;38634;52.138;9.912;2022-08-01T01:38:14;10.38;;;2.72;;
52740;SDS011;38634;52.138;9.912;2022-08-01T01:41:02;11.60;;;2.67;;
52740;SDS011;38634;52.138;9.912;2022-08-01T01:43:48;9.07;;;2.17;;
52740;SDS011;38634;52.138;9.912;2022-08-01T01:46:32;11.15;;;2.63;;
52740;SDS011;38634;52.138;9.912;2022-08-01T01:49:19;8.13;;;2.20;;
52740;SDS011;38634;52.138;9.912;2022-08-01T01:52:07;8.52;;;2.10;;
52740;SDS011;38634;52.138;9.912;2022-08-01T01:54:52;8.38;;;2.25;;
52740;SDS011;38634;52.138;9.912;2022-08-01T01:57:42;9.00;;;2.20;;
52740;SDS011;38634;52.138;9.912;2022-08-01T02:00:27;11.63;;;2.80;;
52740;SDS011;38634;52.138;9.912;2022-08-01T07:51:14;13.15;;;3.47;;
52740;SDS011;38634;52.138;9.912;2022-08-01T07:53:59;9.85;;;2.58;;
52740;SDS011;38634;52.138;9.912;2022-08-01T07:56:44;11.57;;;2.75;;
52740;SDS011;38634;52.138;9.912;2022-08-01T07:59:28;10.15;;;2.38;;
52740;SDS011;38634;52.138;9.912;2022-08-01T08:02:13;9.52;;;2.40;;
52740;SDS011;38634;52.138;9.912;2022-08-01T08:04:58;8.60;;;2.30;;
52740;SDS011;38634;52.138;9.912;2022-08-01T08:07:42;7.05;;;1.95;;
52740;SDS011;38634;52.138;9.912;2022-08-01T08:10:27;6.07;;;1.80;;
52740;SDS011;38634;52.138;9.912;2022-08-01T08:13:12;10.38;;;2.28;;
52740;SDS011;38634;52.138;9.912;2022-08-01T08:15:57;8.18;;;2.17;;
52740;SDS011;38634;52.138;9.912;2022-08-01T08:18:43;9.52;;;2.58;;
52740;SDS011;38634;52.138;9.912;2022-08-01T08:21:28;8.40;;;2.88;;
52740;SDS011;38634;52.138;9.912;2022-08-01T08:24:13;8.73;;;2.55;;
52740;SDS011;38634;52.138;9.912;2022-08-01T08:27:04;11.57;;;2.65;;
52740;SDS011;38634;52.138;9.912;2022-08-01T08:29:49;10.55;;;2.30;;
52740;SDS011;38634;52.138;9.912;2022-08-01T08:32:34;10.55;;;2.70;;
52740;SDS011;38634;52.138;9.912;2022-08-01T08:35:19;12.20;;;2.63;;
52740;SDS011;38634;52.138;9.912;2022-08-01T08:38:04;11.85;;;2.55;;
52740;SDS011;38634;52.138;9.912;2022-08-01T08:40:48;8.48;;;2.10;;
52740;SDS011;38634;52.138;9.912;2022-08-01T08:43:33;11.65;;;2.83;;
52740;SDS011;38634;52.138;9.912;2022-08-01T08:46:19;9.38;;;2.00;;
52740;SDS011;38634;52.138;9.912;2022-08-01T08:49:04;9.32;;;2.45;;
52740;SDS011;38634;52.138;9.912;2022-08-01T08:51:50;6.88;;;2.03;;
52740;SDS011;38634;52.138;9.912;2022-08-01T08:54:40;6.68;;;2.10;;
52740;SDS011;38634;52.138;9.912;2022-08-01T08:57:26;9.38;;;2.33;;
52740;SDS011;38634;52.138;9.912;2022-08-01T09:00:12;8.98;;;2.53;;
52740;SDS011;38634;52.138;9.912;2022-08-01T09:02:59;5.38;;;1.50;;
52740;SDS011;38634;52.138;9.912;2022-08-01T09:05:44;10.13;;;2.67;;
52740;SDS011;38634;52.138;9.912;2022-08-01T09:08:29;10.50;;;2.30;;
52740;SDS011;38634;52.138;9.912;2022-08-01T09:11:15;10.05;;;3.05;;
52740;SDS011;38634;52.138;9.912;2022-08-01T09:14:01;8.93;;;2.78;;
52740;SDS011;38634;52.138;9.912;2022-08-01T09:19:46;9.93;;;2.30;;
52740;SDS011;38634;52.138;9.912;2022-08-01T09:22:35;10.05;;;2.60;;
52740;SDS011;38634;52.138;9.912;2022-08-01T09:25:21;10.50;;;2.45;;
52740;SDS011;38634;52.138;9.912;2022-08-01T09:28:11;9.32;;;2.30;;
52740;SDS011;38634;52.138;9.912;2022-08-01T09:30:57;9.88;;;2.42;;
52740;SDS011;38634;52.138;9.912;2022-08-01T09:36:49;10.95;;;2.63;;
52740;SDS011;38634;52.138;9.912;2022-08-01T09:39:39;11.25;;;3.00;;
52740;SDS011;38634;52.138;9.912;2022-08-01T09:42:26;7.40;;;2.13;;
52740;SDS011;38634;52.138;9.912;2022-08-01T09:45:30;10.07;;;2.45;;
52740;SDS011;38634;52.138;9.912;2022-08-01T09:48:17;8.80;;;2.20;;
52740;SDS011;38634;52.138;9.912;2022-08-01T09:51:05;11.90;;;3.42;;
52740;SDS011;38634;52.138;9.912;2022-08-01T09:53:51;9.88;;;2.60;;
52740;SDS011;38634;52.138;9.912;2022-08-01T09:56:39;10.02;;;2.58;;
52740;SDS011;38634;52.138;9.912;2022-08-01T09:59:36;9.45;;;2.65;;
52740;SDS011;38634;52.138;9.912;2022-08-01T10:02:26;7.93;;;2.13;;
52740;SDS011;38634;52.138;9.912;2022-08-01T10:05:34;7.15;;;1.95;;
52740;SDS011;38634;52.138;9.912;2022-08-01T10:08:20;6.63;;;2.03;;
52740;SDS011;38634;52.138;9.912;2022-08-01T10:11:11;9.55;;;3.30;;
52740;SDS011;38634;52.138;9.912;2022-08-01T10:13:57;9.10;;;2.67;;
52740;SDS011;38634;52.138;9.912;2022-08-01T10:16:43;8.63;;;2.30;;
52740;SDS011;38634;52.138;9.912;2022-08-01T10:19:29;8.93;;;2.33;;
52740;SDS011;38634;52.138;9.912;2022-08-01T10:22:16;8.98;;;2.53;;
52740;SDS011;38634;52.138;9.912;2022-08-01T10:25:05;10.88;;;2.65;;
52740;SDS011;38634;52.138;9.912;2022-08-01T10:27:52;8.85;;;2.47;;
52740;SDS011;38634;52.138;9.912;2022-08-01T10:30:41;9.05;;;2.38;;
52740;SDS011;38634;52.138;9.912;2022-08-01T10:33:27;10.52;;;2.53;;
52740;SDS011;38634;52.138;9.912;2022-08-01T10:36:14;9.00;;;2.63;;
52740;SDS011;38634;52.138;9.912;2022-08-01T10:39:06;9.48;;;2.58;;
52740;SDS011;38634;52.138;9.912;2022-08-01T10:41:55;9.63;;;2.55;;
52740;SDS011;38634;52.138;9.912;2022-08-01T10:44:40;6.32;;;1.75;;
52740;SDS011;38634;52.138;9.912;2022-08-01T10:47:34;9.55;;;2.45;;
52740;SDS011;38634;52.138;9.912;2022-08-01T10:50:49;5.47;;;1.73;;
52740;SDS011;38634;52.138;9.912;2022-08-01T10:53:45;9.00;;;2.53;;
52740;SDS011;38634;52.138;9.912;2022-08-01T10:56:43;8.57;;;2.45;;
52740;SDS011;38634;52.138;9.912;2022-08-01T10:59:34;11.27;;;2.60;;
52740;SDS011;38634;52.138;9.912;2022-08-01T11:02:31;10.30;;;2.78;;
52740;SDS011;38634;52.138;9.912;2022-08-01T11:05:20;6.78;;;2.10;;
52740;SDS011;38634;52.138;9.912;2022-08-01T11:08:21;8.70;;;2.22;;
52740;SDS011;38634;52.138;9.912;2022-08-01T11:11:06;9.90;;;2.83;;
52740;SDS011;38634;52.138;9.912;2022-08-01T11:16:45;10.10;;;2.60;;
52740;SDS011;38634;52.138;9.912;2022-08-01T11:20:02;7.80;;;2.08;;
52740;SDS011;38634;52.138;9.912;2022-08-01T11:28:30;8.60;;;2.40;;
52740;SDS011;38634;52.138;9.912;2022-08-01T11:34:06;6.90;;;1.80;;
52740;SDS011;38634;52.138;9.912;2022-08-01T11:36:56;5.72;;;1.85;;
52740;SDS011;38634;52.138;9.912;2022-08-01T11:43:23;17.48;;;7.05;;
52740;SDS011;38634;52.138;9.912;2022-08-01T11:46:09;11.75;;;3.80;;
52740;SDS011;38634;52.138;9.912;2022-08-01T11:52:29;16.88;;;4.82;;
52740;SDS011;38634;52.138;9.912;2022-08-01T11:55:19;21.48;;;5.82;;
52740;SDS011;38634;52.138;9.912;2022-08-01T11:58:05;29.10;;;7.25;;
52740;SDS011;38634;52.138;9.912;2022-08-01T12:00:55;19.92;;;5.07;;
52740;SDS011;38634;52.138;9.912;2022-08-01T12:03:43;19.52;;;4.80;;
52740;SDS011;38634;52.138;9.912;2022-08-01T12:06:28;29.63;;;7.15;;
52740;SDS011;38634;52.138;9.912;2022-08-01T12:09:20;29.92;;;6.78;;
52740;SDS011;38634;52.138;9.912;2022-08-01T12:12:07;16.75;;;4.70;;
52740;SDS011;38634;52.138;9.912;2022-08-01T12:14:53;27.40;;;6.65;;
52740;SDS011;38634;52.138;9.912;2022-08-01T12:17:59;12.20;;;3.60;;
52740;SDS011;38634;52.138;9.912;2022-08-01T12:20:46;24.75;;;6.43;;
52740;SDS011;38634;52.138;9.912;2022-08-01T12:23:30;14.68;;;3.95;;
52740;SDS011;38634;52.138;9.912;2022-08-01T12:26:15;11.98;;;3.63;;
52740;SDS011;38634;52.138;9.912;2022-08-01T12:29:00;16.77;;;4.97;;
52740;SDS011;38634;52.138;9.912;2022-08-01T12:31:44;31.80;;;7.13;;
52740;SDS011;38634;52.138;9.912;2022-08-01T12:34:29;24.23;;;6.57;;
52740;SDS011;38634;52.138;9.912;2022-08-01T12:37:20;8.13;;;3.05;;
52740;SDS011;38634;52.138;9.912;2022-08-01T12:40:13;20.20;;;4.97;;
52740;SDS011;38634;52.138;9.912;2022-08-01T12:43:05;18.13;;;5.07;;
52740;SDS011;38634;52.138;9.912;2022-08-01T12:45:51;13.20;;;4.25;;
52740;SDS011;38634;52.138;9.912;2022-08-01T12:48:37;29.83;;;7.70;;
52740;SDS011;38634;52.138;9.912;2022-08-01T12:51:22;24.40;;;7.22;;
52740;SDS011;38634;52.138;9.912;2022-08-01T12:54:10;10.55;;;3.53;;
52740;SDS011;38634;52.138;9.912;2022-08-01T12:56:55;9.65;;;3.65;;
52740;SDS011;38634;52.138;9.912;2022-08-01T12:59:48;20.95;;;5.18;;
52740;SDS011;38634;52.138;9.912;2022-08-01T13:03:16;11.77;;;4.13;;
52740;SDS011;38634;52.138;9.912;2022-08-01T13:09:19;28.80;;;7.13;;
52740;SDS011;38634;52.138;9.912;2022-08-01T13:15:43;25.58;;;5.32;;
52740;SDS011;38634;52.138;9.912;2022-08-01T13:18:34;16.45;;;4.35;;
52740;SDS011;38634;52.138;9.912;2022-08-01T13:21:21;31.45;;;8.90;;
52740;SDS011;38634;52.138;9.912;2022-08-01T13:24:11;20.95;;;5.22;;
52740;SDS011;38634;52.138;9.912;2022-08-01T13:26:58;14.57;;;4.30;;
52740;SDS011;38634;52.138;9.912;2022-08-01T13:29:44;24.70;;;5.97;;
52740;SDS011;38634;52.138;9.912;2022-08-01T13:32:37;23.80;;;5.63;;
52740;SDS011;38634;52.138;9.912;2022-08-01T13:35:22;12.73;;;4.15;;
52740;SDS011;38634;52.138;9.912;2022-08-01T13:38:07;19.15;;;4.80;;
52740;SDS011;38634;52.138;9.912;2022-08-01T13:40:57;35.25;;;7.95;;
52740;SDS011;38634;52.138;9.912;2022-08-01T13:43:42;18.10;;;4.15;;
52740;SDS011;38634;52.138;9.912;2022-08-01T13:46:30;19.13;;;5.63;;
52740;SDS011;38634;52.138;9.912;2022-08-01T13:49:15;21.15;;;5.07;;
52740;SDS011;38634;52.138;9.912;2022-08-01T13:52:00;30.38;;;7.65;;
52740;SDS011;38634;52.138;9.912;2022-08-01T13:54:46;21.05;;;5.07;;
52740;SDS011;38634;52.138;9.912;2022-08-01T13:57:31;11.38;;;4.07;;
52740;SDS011;38634;52.138;9.912;2022-08-01T14:00:16;13.10;;;3.63;;
52740;SDS011;38634;52.138;9.912;2022-08-01T14:03:00;25.00;;;7.50;;
52740;SDS011;38634;52.138;9.912;2022-08-01T14:05:45;29.20;;;7.15;;
52740;SDS011;38634;52.138;9.912;2022-08-01T14:08:30;14.05;;;4.53;;
52740;SDS011;38634;52.138;9.912;2022-08-01T14:11:15;14.98;;;4.95;;
52740;SDS011;38634;52.138;9.912;2022-08-01T14:14:00;21.33;;;6.30;;
52740;SDS011;38634;52.138;9.912;2022-08-01T14:16:45;32.88;;;7.97;;
52740;SDS011;38634;52.138;9.912;2022-08-01T14:19:29;28.25;;;6.75;;
52740;SDS011;38634;52.138;9.912;2022-08-01T14:22:14;13.57;;;4.45;;
52740;SDS011;38634;52.138;9.912;2022-08-01T14:24:59;14.38;;;4.68;;
52740;SDS011;38634;52.138;9.912;2022-08-01T14:27:44;22.42;;;5.72;;
52740;SDS011;38634;52.138;9.912;2022-08-01T14:30:38;21.77;;;5.35;;
52740;SDS011;38634;52.138;9.912;2022-08-01T14:33:25;10.07;;;3.60;;
52740;SDS011;38634;52.138;9.912;2022-08-01T14:36:10;21.63;;;5.78;;
52740;SDS011;38634;52.138;9.912;2022-08-01T14:38:55;32.92;;;7.55;;
52740;SDS011;38634;52.138;9.912;2022-08-01T14:41:39;27.83;;;6.15;;
52740;SDS011;38634;52.138;9.912;2022-08-01T14:44:24;14.68;;;4.68;;
52740;SDS011;38634;52.138;9.912;2022-08-01T14:47:08;15.35;;;4.63;;
52740;SDS011;38634;52.138;9.912;2022-08-01T14:49:56;30.60;;;7.57;;
52740;SDS011;38634;52.138;9.912;2022-08-01T14:52:44;31.90;;;7.15;;
52740;SDS011;38634;52.138;9.912;2022-08-01T14:55:29;14.23;;;4.15;;
52740;SDS011;38634;52.138;9.912;2022-08-01T14:58:13;17.20;;;4.65;;
52740;SDS011;38634;52.138;9.912;2022-08-01T15:00:58;31.73;;;8.00;;
52740;SDS011;38634;52.138;9.912;2022-08-01T15:03:43;32.70;;;7.90;;
52740;SDS011;38634;52.138;9.912;2022-08-01T15:06:27;26.23;;;6.22;;
52740;SDS011;38634;52.138;9.912;2022-08-01T15:09:13;12.33;;;3.57;;
52740;SDS011;38634;52.138;9.912;2022-08-01T15:11:57;15.68;;;4.28;;
52740;SDS011;38634;52.138;9.912;2022-08-01T15:14:43;35.25;;;7.95;;
52740;SDS011;38634;52.138;9.912;2022-08-01T15:17:34;22.05;;;5.28;;
52740;SDS011;38634;52.138;9.912;2022-08-01T15:20:18;14.88;;;4.32;;
52740;SDS011;38634;52.138;9.912;2022-08-01T15:23:03;20.58;;;5.25;;
52740;SDS011;38634;52.138;9.912;2022-08-01T15:25:47;34.85;;;8.15;;
52740;SDS011;38634;52.138;9.912;2022-08-01T15:28:33;38.88;;;8.63;;
52740;SDS011;38634;52.138;9.912;2022-08-01T15:31:17;22.85;;;5.55;;
52740;SDS011;38634;52.138;9.912;2022-08-01T15:34:02;14.40;;;3.58;;
52740;SDS011;38634;52.138;9.912;2022-08-01T15:36:47;17.27;;;4.65;;
52740;SDS011;38634;52.138;9.912;2022-08-01T15:39:31;32.25;;;7.72;;
52740;SDS011;38634;52.138;9.912;2022-08-01T15:42:17;27.08;;;6.50;;
52740;SDS011;38634;52.138;9.912;2022-08-01T15:45:02;16.30;;;4.40;;
52740;SDS011;38634;52.138;9.912;2022-08-01T15:47:47;17.45;;;4.63;;
52740;SDS011;38634;52.138;9.912;2022-08-01T15:50:32;30.50;;;7.00;;
52740;SDS011;38634;52.138;9.912;2022-08-01T15:53:16;36.92;;;8.05;;
52740;SDS011;38634;52.138;9.912;2022-08-01T15:56:01;30.85;;;7.25;;
52740;SDS011;38634;52.138;9.912;2022-08-01T15:58:46;16.08;;;4.20;;
52740;SDS011;38634;52.138;9.912;2022-08-01T16:01:31;19.58;;;5.80;;
52740;SDS011;38634;52.138;9.912;2022-08-01T16:04:15;24.33;;;4.88;;
52740;SDS011;38634;52.138;9.912;2022-08-01T16:07:01;41.33;;;8.98;;
52740;SDS011;38634;52.138;9.912;2022-08-01T16:09:45;32.35;;;7.00;;
52740;SDS011;38634;52.138;9.912;2022-08-01T16:12:31;12.55;;;3.90;;
52740;SDS011;38634;52.138;9.912;2022-08-01T16:15:15;23.10;;;6.43;;
52740;SDS011;38634;52.138;9.912;2022-08-01T16:18:00;37.22;;;8.15;;
52740;SDS011;38634;52.138;9.912;2022-08-01T16:20:44;34.10;;;7.65;;
52740;SDS011;38634;52.138;9.912;2022-08-01T16:23:29;15.75;;;4.97;;
52740;SDS011;38634;52.138;9.912;2022-08-01T16:26:14;16.35;;;4.50;;
52740;SDS011;38634;52.138;9.912;2022-08-01T16:28:59;27.55;;;6.30;;
52740;SDS011;38634;52.138;9.912;2022-08-01T16:31:44;39.88;;;8.23;;
52740;SDS011;38634;52.138;9.912;2022-08-01T16:34:28;29.80;;;7.07;;
52740;SDS011;38634;52.138;9.912;2022-08-01T16:37:13;15.20;;;3.97;;
52740;SDS011;38634;52.138;9.912;2022-08-01T16:39:58;20.17;;;4.95;;
52740;SDS011;38634;52.138;9.912;2022-08-01T16:42:43;37.35;;;8.07;;
52740;SDS011;38634;52.138;9.912;2022-08-01T16:45:28;35.63;;;7.97;;
52740;SDS011;38634;52.138;9.912;2022-08-01T16:48:13;15.35;;;4.57;;
52740;SDS011;38634;52.138;9.912;2022-08-01T16:50:58;13.32;;;3.85;;
52740;SDS011;38634;52.138;9.912;2022-08-01T16:53:43;30.85;;;7.05;;
52740;SDS011;38634;52.138;9.912;2022-08-01T16:56:28;38.53;;;8.05;;
52740;SDS011;38634;52.138;9.912;2022-08-01T16:59:12;25.20;;;5.93;;
52740;SDS011;38634;52.138;9.912;2022-08-01T17:01:57;17.30;;;4.80;;
52740;SDS011;38634;52.138;9.912;2022-08-01T17:04:42;22.38;;;5.80;;
52740;SDS011;38634;52.138;9.912;2022-08-01T17:07:26;32.55;;;7.15;;
52740;SDS011;38634;52.138;9.912;2022-08-01T17:10:11;36.83;;;7.80;;
52740;SDS011;38634;52.138;9.912;2022-08-01T17:12:57;13.10;;;3.92;;
52740;SDS011;38634;52.138;9.912;2022-08-01T17:15:41;14.75;;;4.18;;
52740;SDS011;38634;52.138;9.912;2022-08-01T17:18:26;31.30;;;6.75;;
52740;SDS011;38634;52.138;9.912;2022-08-01T17:21:11;31.63;;;7.75;;
52740;SDS011;38634;52.138;9.912;2022-08-01T17:23:56;26.90;;;6.43;;
52740;SDS011;38634;52.138;9.912;2022-08-01T17:26:40;13.68;;;4.50;;
52740;SDS011;38634;52.138;9.912;2022-08-01T17:29:25;13.10;;;3.03;;
52740;SDS011;38634;52.138;9.912;2022-08-01T17:32:11;11.38;;;2.92;;
52740;SDS011;38634;52.138;9.912;2022-08-01T17:34:56;10.10;;;2.45;;
52740;SDS011;38634;52.138;9.912;2022-08-01T17:37:41;14.98;;;3.70;;
52740;SDS011;38634;52.138;9.912;2022-08-01T17:40:26;13.20;;;3.13;;
52740;SDS011;38634;52.138;9.912;2022-08-01T17:43:10;10.63;;;2.67;;
52740;SDS011;38634;52.138;9.912;2022-08-01T17:45:55;10.23;;;2.75;;
52740;SDS011;38634;52.138;9.912;2022-08-01T17:48:40;11.55;;;2.85;;
52740;SDS011;38634;52.138;9.912;2022-08-01T17:51:27;12.90;;;3.88;;
52740;SDS011;38634;52.138;9.912;2022-08-01T17:54:11;10.82;;;2.63;;
52740;SDS011;38634;52.138;9.912;2022-08-01T17:56:56;9.20;;;2.75;;
52740;SDS011;38634;52.138;9.912;2022-08-01T17:59:40;10.90;;;2.50;;
52740;SDS011;38634;52.138;9.912;2022-08-01T18:02:26;13.70;;;3.20;;
52740;SDS011;38634;52.138;9.912;2022-08-01T18:05:11;13.07;;;2.90;;
52740;SDS011;38634;52.138;9.912;2022-08-01T18:07:55;7.28;;;2.08;;
52740;SDS011;38634;52.138;9.912;2022-08-01T18:10:40;10.85;;;2.42;;
52740;SDS011;38634;52.138;9.912;2022-08-01T18:13:25;12.60;;;2.70;;
52740;SDS011;38634;52.138;9.912;2022-08-01T18:16:10;11.23;;;2.38;;
52740;SDS011;38634;52.138;9.912;2022-08-01T18:18:55;13.07;;;2.80;;
52740;SDS011;38634;52.138;9.912;2022-08-01T18:21:40;11.32;;;2.20;;
52740;SDS011;38634;52.138;9.912;2022-08-01T18:24:24;11.75;;;2.50;;
52740;SDS011;38634;52.138;9.912;2022-08-01T18:27:09;11.57;;;2.53;;
52740;SDS011;38634;52.138;9.912;2022-08-01T18:29:54;9.68;;;2.13;;
52740;SDS011;38634;52.138;9.912;2022-08-01T18:32:40;11.63;;;2.75;;
52740;SDS011;38634;52.138;9.912;2022-08-01T18:35:26;12.45;;;2.78;;
52740;SDS011;38634;52.138;9.912;2022-08-01T18:38:10;9.77;;;2.10;;
52740;SDS011;38634;52.138;9.912;2022-08-01T18:40:55;9.05;;;2.05;;
52740;SDS011;38634;52.138;9.912;2022-08-01T18:43:40;11.77;;;2.53;;
52740;SDS011;38634;52.138;9.912;2022-08-01T18:46:25;13.52;;;2.97;;
52740;SDS011;38634;52.138;9.912;2022-08-01T18:49:10;11.48;;;2.53;;
52740;SDS011;38634;52.138;9.912;2022-08-01T18:51:55;12.30;;;2.70;;
52740;SDS011;38634;52.138;9.912;2022-08-01T18:54:41;6.13;;;2.15;;
52740;SDS011;38634;52.138;9.912;2022-08-01T18:57:26;9.05;;;2.55;;
52740;SDS011;38634;52.138;9.912;2022-08-01T19:00:10;10.43;;;2.17;;
52740;SDS011;38634;52.138;9.912;2022-08-01T19:02:57;13.32;;;2.97;;
52740;SDS011;38634;52.138;9.912;2022-08-01T19:05:42;12.23;;;2.75;;
52740;SDS011;38634;52.138;9.912;2022-08-01T19:08:26;11.93;;;2.55;;
52740;SDS011;38634;52.138;9.912;2022-08-01T19:11:11;13.35;;;3.47;;
52740;SDS011;38634;52.138;9.912;2022-08-01T19:13:56;11.02;;;2.63;;
52740;SDS011;38634;52.138;9.912;2022-08-01T19:16:41;10.95;;;2.33;;
52740;SDS011;38634;52.138;9.912;2022-08-01T19:19:25;10.13;;;2.58;;
52740;SDS011;38634;52.138;9.912;2022-08-01T19:22:10;13.95;;;2.88;;
52740;SDS011;38634;52.138;9.912;2022-08-01T19:24:55;16.02;;;3.28;;
52740;SDS011;38634;52.138;9.912;2022-08-01T19:27:41;10.43;;;2.45;;
52740;SDS011;38634;52.138;9.912;2022-08-01T19:30:32;14.93;;;2.92;;
52740;SDS011;38634;52.138;9.912;2022-08-01T19:33:20;11.13;;;2.55;;
52740;SDS011;38634;52.138;9.912;2022-08-01T19:36:11;12.23;;;2.50;;
52740;SDS011;38634;52.138;9.912;2022-08-01T19:39:00;13.77;;;2.92;;
52740;SDS011;38634;52.138;9.912;2022-08-01T19:41:44;15.25;;;2.97;;
52740;SDS011;38634;52.138;9.912;2022-08-01T19:44:30;10.15;;;2.35;;
52740;SDS011;38634;52.138;9.912;2022-08-01T19:47:15;6.93;;;1.92;;
52740;SDS011;38634;52.138;9.912;2022-08-01T19:50:00;9.10;;;2.17;;
52740;SDS011;38634;52.138;9.912;2022-08-01T19:52:50;11.15;;;2.33;;
52740;SDS011;38634;52.138;9.912;2022-08-01T19:55:40;14.82;;;2.85;;
52740;SDS011;38634;52.138;9.912;2022-08-01T19:58:26;11.68;;;2.53;;
52740;SDS011;38634;52.138;9.912;2022-08-01T20:01:11;12.52;;;3.45;;
52740;SDS011;38634;52.138;9.912;2022-08-01T20:03:59;14.38;;;3.13;;
52740;SDS011;38634;52.138;9.912;2022-08-01T20:06:48;9.27;;;2.15;;
52740;SDS011;38634;52.138;9.912;2022-08-01T20:09:33;10.43;;;2.13;;
52740;SDS011;38634;52.138;9.912;2022-08-01T20:12:21;10.05;;;2.40;;
52740;SDS011;38634;52.138;9.912;2022-08-01T20:15:06;12.75;;;2.83;;
52740;SDS011;38634;52.138;9.912;2022-08-01T20:17:51;13.13;;;2.65;;
52740;SDS011;38634;52.138;9.912;2022-08-01T20:20:35;11.32;;;2.67;;
52740;SDS011;38634;52.138;9.912;2022-08-01T20:23:21;12.55;;;3.05;;
52740;SDS011;38634;52.138;9.912;2022-08-01T20:26:07;10.93;;;2.50;;
52740;SDS011;38634;52.138;9.912;2022-08-01T20:28:53;8.60;;;2.38;;
52740;SDS011;38634;52.138;9.912;2022-08-01T20:31:39;13.48;;;2.92;;
52740;SDS011;38634;52.138;9.912;2022-08-01T20:34:23;9.27;;;2.20;;
52740;SDS011;38634;52.138;9.912;2022-08-01T20:37:09;11.35;;;2.67;;
52740;SDS011;38634;52.138;9.912;2022-08-01T20:39:53;10.15;;;2.53;;
52740;SDS011;38634;52.138;9.912;2022-08-01T20:42:40;11.00;;;2.60;;
52740;SDS011;38634;52.138;9.912;2022-08-01T20:45:25;11.43;;;2.60;;
52740;SDS011;38634;52.138;9.912;2022-08-01T20:48:09;10.30;;;2.67;;
52740;SDS011;38634;52.138;9.912;2022-08-01T20:50:55;13.73;;;3.22;;
52740;SDS011;38634;52.138;9.912;2022-08-01T20:53:58;12.00;;;2.45;;
52740;SDS011;38634;52.138;9.912;2022-08-01T20:56:45;10.63;;;2.38;;
52740;SDS011;38634;52.138;9.912;2022-08-01T21:00:07;13.15;;;2.83;;
52740;SDS011;38634;52.138;9.912;2022-08-01T21:03:00;15.63;;;2.90;;
52740;SDS011;38634;52.138;9.912;2022-08-01T21:05:56;15.25;;;2.95;;
52740;SDS011;38634;52.138;9.912;2022-08-01T21:08:56;10.65;;;2.30;;
52740;SDS011;38634;52.138;9.912;2022-08-01T21:11:48;13.38;;;2.67;;
52740;SDS011;38634;52.138;9.912;2022-08-01T21:20:46;10.27;;;2.65;;
52740;SDS011;38634;52.138;9.912;2022-08-01T21:26:53;11.38;;;2.95;;
52740;SDS011;38634;52.138;9.912;2022-08-01T21:29:38;11.38;;;3.13;;
52740;SDS011;38634;52.138;9.912;2022-08-01T21:32:23;12.10;;;2.80;;
52740;SDS011;38634;52.138;9.912;2022-08-01T21:35:12;11.82;;;2.80;;
52740;SDS011;38634;52.138;9.912;2022-08-01T21:37:57;14.43;;;3.20;;
52740;SDS011;38634;52.138;9.912;2022-08-01T21:40:42;11.40;;;2.38;;
52740;SDS011;38634;52.138;9.912;2022-08-01T21:43:28;8.00;;;1.85;;
52740;SDS011;38634;52.138;9.912;2022-08-01T21:46:16;11.83;;;3.13;;
52740;SDS011;38634;52.138;9.912;2022-08-01T21:49:01;7.30;;;1.70;;
52740;SDS011;38634;52.138;9.912;2022-08-01T21:51:49;9.15;;;2.33;;
52740;SDS011;38634;52.138;9.912;2022-08-01T21:54:56;12.88;;;2.95;;
52740;SDS011;38634;52.138;9.912;2022-08-01T22:00:48;10.07;;;2.63;;
52740;SDS011;38634;52.138;9.912;2022-08-01T22:03:46;5.97;;;1.90;;
52740;SDS011;38634;52.138;9.912;2022-08-01T22:06:32;6.78;;;1.80;;
52740;SDS011;38634;52.138;9.912;2022-08-01T22:09:18;9.57;;;2.47;;
52740;SDS011;38634;52.138;9.912;2022-08-01T22:12:04;9.85;;;2.47;;
52740;SDS011;38634;52.138;9.912;2022-08-01T22:14:51;5.80;;;2.35;;
52740;SDS011;38634;52.138;9.912;2022-08-01T22:17:37;6.32;;;2.17;;
52740;SDS011;38634;52.138;9.912;2022-08-01T22:20:24;5.45;;;1.85;;
52740;SDS011;38634;52.138;9.912;2022-08-01T22:23:10;3.75;;;1.58;;
52740;SDS011;38634;52.138;9.912;2022-08-01T22:25:55;2.10;;;0.90;;
52740;SDS011;38634;52.138;9.912;2022-08-01T22:28:40;2.40;;;1.02;;
52740;SDS011;38634;52.138;9.912;2022-08-01T22:31:24;10.07;;;4.35;;
52740;SDS011;38634;52.138;9.912;2022-08-01T22:34:09;8.13;;;2.28;;
52740;SDS011;38634;52.138;9.912;2022-08-01T22:36:54;8.57;;;2.50;;
52740;SDS011;38634;52.138;9.912;2022-08-01T22:39:38;8.70;;;2.58;;
52740;SDS011;38634;52.138;9.912;2022-08-01T22:42:27;10.02;;;2.65;;
52740;SDS011;38634;52.138;9.912;2022-08-01T22:48:15;11.00;;;2.70;;
52740;SDS011;38634;52.138;9.912;2022-08-01T22:51:08;11.82;;;3.67;;
52740;SDS011;38634;52.138;9.912;2022-08-01T22:54:22;8.93;;;2.20;;
52740;SDS011;38634;52.138;9.912;2022-08-01T22:57:23;8.57;;;2.42;;
52740;SDS011;38634;52.138;9.912;2022-08-01T23:00:13;9.93;;;2.60;;
52740;SDS011;38634;52.138;9.912;2022-08-01T23:03:09;8.65;;;2.20;;
52740;SDS011;38634;52.138;9.912;2022-08-01T23:06:03;8.55;;;2.33;;
52740;SDS011;38634;52.138;9.912;2022-08-01T23:08:56;10.35;;;2.85;;
52740;SDS011;38634;52.138;9.912;2022-08-01T23:11:42;9.38;;;2.60;;
52740;SDS011;38634;52.138;9.912;2022-08-01T23:14:31;9.18;;;2.33;;
52740;SDS011;38634;52.138;9.912;2022-08-01T23:17:15;8.18;;;2.25;;
52740;SDS011;38634;52.138;9.912;2022-08-01T23:20:03;10.68;;;3.17;;
52740;SDS011;38634;52.138;9.912;2022-08-01T23:22:50;6.10;;;1.83;;